Detall de PIREP

Printer-friendly versionPDF version

[2015/01/17 15:20:00]
Flight IATA:CT0001
Pilot Number:012
Company ICAO:CAT
Aircraft Type:AT72/F
PAX:68
Departing Airport: LEMH
Destination Airport: LEDA
Alternate Airport:LEBL
Online: VATSIM
Route:LUNIK A25 BCN G23 REBUL
Flight Level:F180
No Slew and time accel
No pause
Crash detect
Detect pilot in Cockpit between each 30 and 45 minutes
15:20 Zero fuel Weight: 43340 Lbs, Fuel Weight: 4918 Lbs
15:20 VATSIM:LEMH 171500Z 06003KT 030V090 9999 FEW020TCU 12/04 Q1020
15:20 VATSIM:LEDA 161700Z 25019KT 9999 FEW030 06/04 Q1011
15:21 Parking Brakes off
15:25 Take-off
15:25 Take off Weight: 48206 Lbs
15:25 Wind: 057º @ 003 Knots Heading: 008º
15:25 POS N39º 51´ 54´´ E004º 13´ 08´´
15:25 Gear Up: 133 Knots
15:25 Flaps:1 at 133 Knots
15:25 Flaps:0 at 141 Knots
15:38 TOC
15:38 Fuel Weight: 4411 Lb
15:40 Wind:311º@019 Knots Heading: 311º Ground Speed: 239 Knots Altitude 18198ft
15:55 Wind:297º@024 Knots Heading: 310º Ground Speed: 258 Knots Altitude 18195 ft
16:06 TOD
16:06 Fuel Weight: 3597 Lb
16:10 Wind:266º@030 Knots Heading: 294º Ground Speed: 264 Knots Altitude 12739 ft
16:15 Flaps:1 at 183 Knots
16:18 Flaps:2 at 144 Knots
16:18 Gear Down: 144 Knots
16:22 TouchDown:Rate -206 ft/min Speed: 127 Knots
16:22 Flaps:0 at 52 Knots
16:23 VATSIM:LEDA 161700Z 25019KT 9999 FEW030 06/04 Q1011
16:23 Land
16:23 Wind:277º@005 Knots
16:23 Heading: 305º
16:23 Flight Duration: 00:58
16:23 Landing Weight: 46685 Lbs
16:23 POS N41º 43´ 42´´ E000º 32´ 05´´
16:24 Parking brakes on
16:24 Block to Block Duration: 01:03
16:24 Final Fuel: 3333 Lbls
16:24 Spent Fuel: 1585 Lbls
16:24 Flight Length: 217 NM
16:24 TOD Land Length: 55 NM

Exportar CSV

Powered by Drupal - Modified by Danger4k